Time;durP1;ratioP1;P1;durP2;ratioP2;P2;SDS_P1;SDS_P2;PMS_P1;PMS_P2;Temp;Humidity;BMP_temperature;BMP_pressure;BME280_temperature;BME280_humidity;BME280_pressure;Samples;Min_cycle;Max_cycle;Signal;HPM_P1;HPM_P2
2021/12/23 00:00:52;;;;;;;8.30;3.80;;;-8.70;99.90;;;;;;5035637;28;20405;-66
2021/12/23 00:03:17;;;;;;;11.80;3.90;;;-8.70;99.90;;;;;;5035609;28;20026;-66
2021/12/23 00:05:43;;;;;;;9.80;3.97;;;-8.80;99.90;;;;;;5037151;28;20104;-67
2021/12/23 00:08:09;;;;;;;9.82;4.53;;;-8.90;99.90;;;;;;5035489;28;20031;-66
2021/12/23 00:10:35;;;;;;;14.57;4.68;;;-9.00;99.90;;;;;;5035048;28;20116;-66
2021/12/23 00:13:00;;;;;;;9.43;4.25;;;-9.10;99.90;;;;;;5036291;28;20028;-66
2021/12/23 00:15:37;;;;;;;9.82;4.13;;;-9.10;99.90;;;;;;5036536;28;20117;-66
2021/12/23 00:18:16;;;;;;;8.43;3.83;;;-9.20;99.90;;;;;;5034945;28;20022;-66
2021/12/23 00:23:25;;;;;;;8.13;3.25;;;-9.20;99.90;;;;;;5035995;28;20021;-66
2021/12/23 00:25:54;;;;;;;8.85;3.97;;;-9.20;99.90;;;;;;5034701;28;20470;-66
2021/12/23 00:28:20;;;;;;;8.23;3.50;;;-9.20;99.90;;;;;;5036222;28;20116;-66
2021/12/23 00:30:46;;;;;;;10.27;4.20;;;-9.20;99.90;;;;;;5034739;28;20025;-66
2021/12/23 00:33:12;;;;;;;8.85;3.67;;;-9.20;99.90;;;;;;5035129;28;20090;-66
2021/12/23 00:35:38;;;;;;;9.18;4.53;;;-9.20;99.90;;;;;;5034474;28;20102;-66
2021/12/23 00:38:13;;;;;;;9.02;3.50;;;-9.10;99.90;;;;;;5034398;28;20036;-66
2021/12/23 00:40:39;;;;;;;9.77;4.43;;;-9.10;99.90;;;;;;5034405;28;20018;-66
2021/12/23 00:43:06;;;;;;;10.38;4.15;;;-9.10;99.90;;;;;;5034603;28;20049;-66
2021/12/23 00:45:32;;;;;;;14.60;6.20;;;-9.10;99.90;;;;;;5035811;28;20105;-66
2021/12/23 00:47:58;;;;;;;13.70;6.50;;;-9.10;99.90;;;;;;5036027;28;20056;-66
2021/12/23 00:50:24;;;;;;;11.98;5.30;;;-9.10;99.90;;;;;;5034405;28;20025;-66
2021/12/23 00:52:56;;;;;;;12.05;4.95;;;-9.20;99.90;;;;;;5035615;28;20033;-66
2021/12/23 00:55:22;;;;;;;9.38;4.20;;;-9.20;99.90;;;;;;5034078;28;20397;-66
2021/12/23 00:57:49;;;;;;;11.85;4.95;;;-9.20;99.90;;;;;;5035506;28;20033;-66
2021/12/23 01:00:18;;;;;;;8.73;4.43;;;-9.20;99.90;;;;;;5034221;28;20032;-66
2021/12/23 01:02:45;;;;;;;7.20;4.15;;;-9.20;99.90;;;;;;5024097;28;20076;-66
2021/12/23 01:05:13;;;;;;;10.25;4.05;;;-9.20;99.90;;;;;;5030911;28;20030;-66
2021/12/23 01:07:39;;;;;;;8.05;5.13;;;-9.30;99.90;;;;;;5014271;28;20029;-66
2021/12/23 01:10:07;;;;;;;10.32;5.20;;;-9.40;99.90;;;;;;5015757;28;20033;-66
2021/12/23 01:12:45;;;;;;;9.68;5.15;;;-9.40;99.90;;;;;;5014726;28;20026;-67
2021/12/23 01:15:39;;;;;;;9.10;3.90;;;-9.40;99.90;;;;;;5016033;28;20064;-67
2021/12/23 01:18:11;;;;;;;12.88;3.53;;;-9.40;99.90;;;;;;5015563;28;20486;-68
2021/12/23 01:20:50;;;;;;;9.05;3.72;;;-9.40;99.90;;;;;;5013915;28;20026;-67
2021/12/23 01:23:17;;;;;;;5.63;2.97;;;-9.40;99.90;;;;;;5014251;28;20049;-68
2021/12/23 01:25:43;;;;;;;6.45;2.95;;;-9.30;99.90;;;;;;5015667;28;20053;-67
2021/12/23 01:28:09;;;;;;;5.40;2.85;;;-9.30;99.90;;;;;;5031025;28;20030;-67
2021/12/23 01:30:40;;;;;;;5.32;2.63;;;-9.30;99.90;;;;;;5015470;28;20033;-67
2021/12/23 01:33:08;;;;;;;7.10;3.30;;;-9.30;99.90;;;;;;5014469;28;20026;-67
2021/12/23 01:35:35;;;;;;;5.85;2.65;;;-9.30;99.90;;;;;;5015366;28;20032;-67
2021/12/23 01:38:01;;;;;;;6.28;3.30;;;-9.30;99.90;;;;;;5015238;28;20084;-67
2021/12/23 01:40:28;;;;;;;8.07;3.78;;;-9.30;99.90;;;;;;5014943;28;20028;-67
2021/12/23 01:42:55;;;;;;;7.22;3.75;;;-9.30;99.90;;;;;;5014969;28;20029;-66
2021/12/23 01:45:26;;;;;;;7.40;3.60;;;-9.40;99.90;;;;;;5013777;28;20030;-67
2021/12/23 01:47:53;;;;;;;9.65;3.80;;;-9.40;99.90;;;;;;5014810;28;20033;-67
2021/12/23 01:50:24;;;;;;;7.45;2.80;;;-9.40;99.90;;;;;;5015608;28;20037;-67
2021/12/23 01:52:50;;;;;;;5.88;2.83;;;-9.40;99.90;;;;;;5014292;28;20034;-67
2021/12/23 01:55:16;;;;;;;9.90;2.88;;;-9.50;99.90;;;;;;5013927;28;20033;-67
2021/12/23 01:57:43;;;;;;;7.05;3.03;;;-9.50;99.90;;;;;;5013982;28;20018;-67
2021/12/23 02:00:13;;;;;;;8.25;3.13;;;-9.60;99.90;;;;;;5015513;28;20109;-67
2021/12/23 02:02:41;;;;;;;5.47;2.58;;;-9.60;99.90;;;;;;5014998;28;20022;-67
2021/12/23 02:05:08;;;;;;;6.50;2.63;;;-9.70;99.90;;;;;;5015163;28;20521;-66
2021/12/23 02:07:34;;;;;;;6.93;2.72;;;-9.70;99.90;;;;;;5017497;28;20036;-65
2021/12/23 02:10:00;;;;;;;6.68;3.53;;;-9.70;99.90;;;;;;5018108;28;20541;-66
2021/12/23 02:12:27;;;;;;;9.38;3.38;;;-9.70;99.90;;;;;;5017562;28;20033;-66
2021/12/23 02:14:53;;;;;;;7.20;2.95;;;-9.70;99.90;;;;;;5017446;28;20830;-65
2021/12/23 02:17:20;;;;;;;6.55;2.75;;;-9.80;99.90;;;;;;5013211;28;20029;-66
2021/12/23 02:19:47;;;;;;;7.57;2.70;;;-9.80;99.90;;;;;;5015334;28;20092;-65
2021/12/23 02:22:13;;;;;;;4.35;2.50;;;-9.80;99.90;;;;;;5014022;28;20498;-65
2021/12/23 02:24:39;;;;;;;5.97;3.17;;;-9.80;99.90;;;;;;5014595;28;20018;-65
2021/12/23 02:27:05;;;;;;;6.25;2.70;;;-9.80;99.90;;;;;;5013362;28;20026;-65
2021/12/23 02:29:31;;;;;;;5.50;2.58;;;-9.70;99.90;;;;;;5014638;28;20536;-65
2021/12/23 02:31:58;;;;;;;8.63;3.83;;;-9.60;99.90;;;;;;5014457;28;20033;-65
2021/12/23 02:34:24;;;;;;;7.40;3.58;;;-9.60;99.90;;;;;;5014651;28;20389;-66
2021/12/23 02:36:55;;;;;;;8.43;2.83;;;-9.60;99.90;;;;;;5014538;28;20034;-66
2021/12/23 02:39:22;;;;;;;7.63;2.92;;;-9.70;99.90;;;;;;5026623;28;20022;-66
2021/12/23 02:41:48;;;;;;;6.03;2.53;;;-9.70;99.90;;;;;;5032349;28;20533;-66
2021/12/23 02:44:14;;;;;;;9.02;3.22;;;-9.70;99.90;;;;;;5033592;28;20021;-66
2021/12/23 02:46:40;;;;;;;5.45;3.05;;;-9.70;99.90;;;;;;5033977;28;20397;-65
2021/12/23 02:49:06;;;;;;;7.28;2.80;;;-9.70;99.90;;;;;;5034620;28;20025;-65
2021/12/23 02:51:33;;;;;;;8.57;2.95;;;-9.70;99.90;;;;;;5033761;28;20032;-66
2021/12/23 02:53:59;;;;;;;9.15;3.33;;;-9.70;99.90;;;;;;5033902;28;20064;-66
2021/12/23 02:56:24;;;;;;;6.43;3.25;;;-9.70;99.90;;;;;;5033049;28;20489;-65
2021/12/23 02:58:50;;;;;;;5.90;2.70;;;-9.70;99.90;;;;;;5034752;28;20101;-66
2021/12/23 03:01:18;;;;;;;10.88;2.95;;;-9.80;99.90;;;;;;5032523;28;20028;-66
2021/12/23 03:03:44;;;;;;;7.15;3.03;;;-9.70;99.90;;;;;;5032396;28;20092;-65
2021/12/23 03:06:11;;;;;;;6.07;2.80;;;-9.80;99.90;;;;;;5032371;28;20021;-65
2021/12/23 03:08:48;;;;;;;8.77;3.08;;;-9.80;99.90;;;;;;5033344;28;20072;-66
2021/12/23 03:11:18;;;;;;;17.45;6.82;;;-9.80;99.90;;;;;;5033990;28;20029;-65
2021/12/23 03:13:45;;;;;;;18.35;6.55;;;-9.80;99.90;;;;;;5032281;28;20033;-65
2021/12/23 03:16:13;;;;;;;15.38;6.25;;;-9.80;99.90;;;;;;5032099;28;20442;-65
2021/12/23 03:18:41;;;;;;;17.92;7.65;;;-9.80;99.90;;;;;;5032409;28;20367;-65
2021/12/23 03:21:07;;;;;;;14.73;6.28;;;-9.80;99.90;;;;;;5032109;28;20048;-65
2021/12/23 03:23:33;;;;;;;10.98;4.97;;;-9.70;99.90;;;;;;5031975;28;20022;-65
2021/12/23 03:25:59;;;;;;;11.45;4.93;;;-9.70;99.90;;;;;;5033178;28;20083;-65
2021/12/23 03:28:25;;;;;;;8.93;4.18;;;-9.70;99.90;;;;;;5033522;28;20473;-65
2021/12/23 03:30:51;;;;;;;9.45;3.50;;;-9.70;99.90;;;;;;5032041;28;20034;-65
2021/12/23 03:33:18;;;;;;;10.35;3.95;;;-9.60;99.90;;;;;;5031834;28;20022;-65
2021/12/23 03:35:44;;;;;;;8.23;3.28;;;-9.60;99.90;;;;;;5031878;28;20030;-65
2021/12/23 03:38:11;;;;;;;5.68;2.78;;;-9.60;99.90;;;;;;5031952;28;20108;-65
2021/12/23 03:40:38;;;;;;;6.45;2.90;;;-9.60;99.90;;;;;;5033414;28;20029;-65
2021/12/23 03:43:04;;;;;;;5.97;2.67;;;-9.60;99.90;;;;;;5034425;28;20029;-65
2021/12/23 03:45:30;;;;;;;5.43;2.80;;;-9.60;99.90;;;;;;5019794;28;20493;-65
2021/12/23 03:47:56;;;;;;;5.72;2.60;;;-9.60;99.90;;;;;;5035545;28;20021;-65
2021/12/23 03:50:24;;;;;;;3.78;2.15;;;-9.60;99.90;;;;;;5036643;28;20025;-65
2021/12/23 03:52:50;;;;;;;5.18;2.55;;;-9.60;99.90;;;;;;5036659;28;20033;-65
2021/12/23 03:55:16;;;;;;;7.78;2.60;;;-9.60;99.90;;;;;;5036692;28;20024;-65
2021/12/23 03:57:42;;;;;;;8.02;2.80;;;-9.60;99.90;;;;;;5035231;28;20445;-65
2021/12/23 04:00:11;;;;;;;6.20;3.03;;;-9.60;99.90;;;;;;5036135;28;20049;-65
2021/12/23 04:02:37;;;;;;;8.18;3.17;;;-9.60;99.90;;;;;;5036500;28;20041;-65
2021/12/23 04:05:06;;;;;;;8.57;3.10;;;-9.60;99.90;;;;;;5035529;28;20053;-66
2021/12/23 04:07:33;;;;;;;6.32;2.45;;;-9.60;99.90;;;;;;5036354;28;20025;-65
2021/12/23 04:09:59;;;;;;;10.95;3.63;;;-9.60;99.90;;;;;;5036570;28;20026;-65
2021/12/23 04:12:24;;;;;;;12.65;4.32;;;-9.70;99.90;;;;;;5036302;28;20026;-65
2021/12/23 04:14:50;;;;;;;10.45;4.00;;;-9.60;99.90;;;;;;5035275;28;20018;-65
2021/12/23 04:17:16;;;;;;;8.55;3.55;;;-9.60;99.90;;;;;;5035288;28;20148;-65
2021/12/23 04:19:45;;;;;;;8.00;3.25;;;-9.60;99.90;;;;;;5036871;28;20038;-65
2021/12/23 04:22:11;;;;;;;4.63;2.72;;;-9.60;99.90;;;;;;5036125;28;20032;-65
2021/12/23 04:24:37;;;;;;;6.05;2.63;;;-9.70;99.90;;;;;;5035139;28;20117;-65
2021/12/23 04:27:04;;;;;;;10.38;3.58;;;-9.70;99.90;;;;;;5036121;28;20026;-66
2021/12/23 04:29:29;;;;;;;9.32;3.00;;;-9.70;99.90;;;;;;5036329;28;20029;-66
2021/12/23 04:31:55;;;;;;;7.25;2.83;;;-9.70;99.90;;;;;;5034861;28;20028;-66
2021/12/23 04:34:21;;;;;;;5.60;2.78;;;-9.70;99.90;;;;;;5034642;28;20112;-66
2021/12/23 04:36:47;;;;;;;5.35;2.80;;;-9.70;99.90;;;;;;5034387;28;20025;-66
2021/12/23 04:39:12;;;;;;;6.70;2.70;;;-9.70;99.90;;;;;;5034637;28;20071;-65
2021/12/23 04:41:38;;;;;;;6.68;2.33;;;-9.70;99.90;;;;;;5034764;28;20032;-65
2021/12/23 04:44:05;;;;;;;6.97;3.35;;;-9.60;99.90;;;;;;5034191;28;20025;-65
2021/12/23 04:46:31;;;;;;;8.40;2.92;;;-9.70;99.90;;;;;;5035482;28;20076;-65
2021/12/23 04:48:57;;;;;;;13.73;2.85;;;-9.70;99.90;;;;;;5035610;28;20493;-65
2021/12/23 04:51:23;;;;;;;5.45;2.03;;;-9.70;99.90;;;;;;5035508;28;20470;-65
2021/12/23 04:53:49;;;;;;;4.38;2.08;;;-9.70;99.90;;;;;;5034788;28;20060;-65
2021/12/23 04:56:17;;;;;;;7.28;3.35;;;-9.70;99.90;;;;;;5035484;28;20037;-65
2021/12/23 04:58:43;;;;;;;7.60;3.00;;;-9.80;99.90;;;;;;5034408;28;20104;-65
2021/12/23 05:01:19;;;;;;;11.45;3.30;;;-9.80;99.90;;;;;;5035493;28;20028;-65
2021/12/23 05:03:47;;;;;;;7.53;3.13;;;-9.80;99.90;;;;;;5034190;28;20021;-65
2021/12/23 05:06:14;;;;;;;5.32;2.20;;;-9.80;99.90;;;;;;5035767;28;20026;-65
2021/12/23 05:08:39;;;;;;;7.18;2.75;;;-9.80;99.90;;;;;;5035208;28;20029;-65
2021/12/23 05:11:05;;;;;;;5.72;2.33;;;-9.80;99.90;;;;;;5035349;28;20032;-65
2021/12/23 05:13:31;;;;;;;5.47;2.35;;;-9.80;99.90;;;;;;5035328;28;20022;-65
2021/12/23 05:15:57;;;;;;;5.07;2.08;;;-9.70;99.90;;;;;;5034995;28;20393;-65
2021/12/23 05:18:23;;;;;;;6.07;2.78;;;-9.70;99.90;;;;;;5033840;28;20384;-66
2021/12/23 05:20:49;;;;;;;15.65;4.68;;;-9.70;99.90;;;;;;5033771;28;20052;-65
2021/12/23 05:23:15;;;;;;;8.73;3.05;;;-9.70;99.90;;;;;;5033813;28;20021;-65
2021/12/23 05:25:41;;;;;;;5.57;2.55;;;-9.70;99.90;;;;;;5034932;28;20032;-65
2021/12/23 05:28:07;;;;;;;5.22;2.45;;;-9.70;99.90;;;;;;5034774;28;20025;-65
2021/12/23 05:30:33;;;;;;;9.68;3.80;;;-9.80;99.90;;;;;;5033268;28;20060;-65
2021/12/23 05:32:59;;;;;;;8.15;2.95;;;-9.80;99.90;;;;;;5033274;28;20116;-65
2021/12/23 05:35:25;;;;;;;9.68;3.25;;;-9.80;99.90;;;;;;5033195;28;20443;-66
2021/12/23 05:37:52;;;;;;;46.72;12.65;;;-9.80;99.90;;;;;;5033223;28;20035;-65
2021/12/23 05:40:22;;;;;;;36.53;10.68;;;-9.80;99.90;;;;;;5033623;28;20131;-65
2021/12/23 05:42:48;;;;;;;23.17;7.18;;;-9.80;99.90;;;;;;5033248;28;20116;-66
2021/12/23 05:45:14;;;;;;;23.98;5.55;;;-9.80;99.90;;;;;;5033112;28;20513;-65
2021/12/23 05:47:41;;;;;;;15.40;5.53;;;-9.70;99.90;;;;;;5033407;28;20047;-65
2021/12/23 05:50:08;;;;;;;21.40;7.22;;;-9.70;99.90;;;;;;5033055;28;20029;-66
2021/12/23 05:52:34;;;;;;;14.27;5.55;;;-9.70;99.90;;;;;;5032875;28;20028;-65
2021/12/23 05:55:02;;;;;;;11.45;4.43;;;-9.80;99.90;;;;;;5033438;28;20071;-65
2021/12/23 05:57:29;;;;;;;10.45;4.57;;;-9.80;99.90;;;;;;5032857;28;20124;-65
2021/12/23 05:59:55;;;;;;;6.97;3.50;;;-9.80;99.90;;;;;;5032926;28;20036;-65
2021/12/23 06:02:21;;;;;;;6.97;3.63;;;-9.80;99.90;;;;;;5033099;28;20032;-65
2021/12/23 06:04:47;;;;;;;7.70;3.40;;;-9.80;99.90;;;;;;5032570;28;20025;-65
2021/12/23 06:07:13;;;;;;;6.82;2.60;;;-9.80;99.90;;;;;;5032161;28;20030;-65
2021/12/23 06:09:38;;;;;;;4.63;2.80;;;-9.80;99.90;;;;;;5032682;28;20136;-65
2021/12/23 06:12:05;;;;;;;4.50;1.90;;;-9.80;99.90;;;;;;5033012;28;20129;-65
2021/12/23 06:14:31;;;;;;;5.65;3.28;;;-9.80;99.90;;;;;;5032729;28;20037;-64
2021/12/23 06:16:56;;;;;;;7.15;2.70;;;-9.80;99.90;;;;;;5034312;28;20026;-65
2021/12/23 06:19:23;;;;;;;8.48;4.13;;;-9.80;99.90;;;;;;5032641;28;20114;-65
2021/12/23 06:21:49;;;;;;;8.35;4.25;;;-9.70;99.90;;;;;;5033965;28;20022;-65
2021/12/23 06:24:14;;;;;;;7.90;3.45;;;-9.70;99.90;;;;;;5033067;28;20025;-65
2021/12/23 06:26:40;;;;;;;11.65;3.80;;;-9.70;99.90;;;;;;5034844;28;20028;-65
2021/12/23 06:29:06;;;;;;;26.60;9.35;;;-9.80;99.90;;;;;;5034449;28;20052;-65
2021/12/23 06:31:32;;;;;;;29.45;10.23;;;-9.80;99.90;;;;;;5034451;28;20022;-65
2021/12/23 06:33:58;;;;;;;29.60;10.63;;;-9.80;99.90;;;;;;5032783;28;20075;-64
2021/12/23 06:36:24;;;;;;;22.30;7.97;;;-9.80;99.90;;;;;;5032440;28;20033;-64
2021/12/23 06:38:50;;;;;;;16.25;6.72;;;-9.80;99.90;;;;;;5034903;28;20043;-65
2021/12/23 06:41:17;;;;;;;42.10;12.40;;;-9.80;99.90;;;;;;5032573;28;20496;-65
2021/12/23 06:43:44;;;;;;;45.45;14.32;;;-9.80;99.90;;;;;;5032691;28;20425;-64
2021/12/23 06:46:10;;;;;;;34.97;10.70;;;-9.80;99.90;;;;;;5034079;28;20112;-64
2021/12/23 06:48:35;;;;;;;17.30;6.53;;;-9.80;99.90;;;;;;5033430;28;20068;-64
2021/12/23 06:51:02;;;;;;;13.23;5.25;;;-9.90;99.90;;;;;;5034254;28;20107;-64
2021/12/23 06:53:28;;;;;;;12.00;4.70;;;-9.90;99.90;;;;;;5034258;28;20037;-64
2021/12/23 06:55:55;;;;;;;18.02;5.72;;;-9.90;99.90;;;;;;5034338;28;20030;-64
2021/12/23 06:58:25;;;;;;;14.32;5.65;;;-9.90;99.90;;;;;;5032951;28;20033;-65
2021/12/23 07:00:52;;;;;;;28.63;6.85;;;-9.90;99.90;;;;;;5034094;28;20526;-64
2021/12/23 07:03:18;;;;;;;29.85;10.00;;;-9.90;99.90;;;;;;5034192;28;20054;-64
2021/12/23 07:05:44;;;;;;;19.40;7.18;;;-9.90;99.90;;;;;;5035002;28;20030;-64
2021/12/23 07:08:27;;;;;;;14.63;6.32;;;-9.90;99.90;;;;;;5034656;28;20029;-65
2021/12/23 07:10:53;;;;;;;15.57;5.50;;;-9.90;99.90;;;;;;5034395;28;20022;-65
2021/12/23 07:13:19;;;;;;;9.52;4.38;;;-10.00;99.90;;;;;;5033807;28;20030;-64
2021/12/23 07:15:45;;;;;;;9.15;4.65;;;-10.00;99.90;;;;;;5033360;28;20043;-64
2021/12/23 07:18:10;;;;;;;9.80;4.47;;;-10.10;99.90;;;;;;5035331;28;20101;-64
2021/12/23 07:20:36;;;;;;;6.15;3.70;;;-10.00;99.90;;;;;;5037968;28;20021;-65
2021/12/23 07:23:02;;;;;;;12.10;3.60;;;-10.00;99.90;;;;;;5036832;28;20461;-64
2021/12/23 07:25:28;;;;;;;10.68;4.25;;;-10.00;99.90;;;;;;5036328;28;20441;-65
2021/12/23 07:27:54;;;;;;;15.00;4.82;;;-10.00;99.90;;;;;;5036435;28;20029;-65
2021/12/23 07:30:21;;;;;;;14.10;5.15;;;-9.90;99.90;;;;;;5036100;28;20400;-65
2021/12/23 07:32:48;;;;;;;13.57;5.15;;;-9.90;99.90;;;;;;5036208;28;20034;-64
2021/12/23 07:35:15;;;;;;;15.80;7.60;;;-9.90;99.90;;;;;;5037483;28;20041;-64
2021/12/23 07:37:41;;;;;;;24.80;9.38;;;-9.90;99.90;;;;;;5037345;28;20362;-64
2021/12/23 07:40:08;;;;;;;36.22;13.38;;;-9.90;99.90;;;;;;5036822;28;20021;-64
2021/12/23 07:42:36;;;;;;;32.80;13.07;;;-9.90;99.90;;;;;;5036886;28;20056;-65
2021/12/23 07:45:03;;;;;;;30.42;11.68;;;-9.90;99.90;;;;;;5036791;28;20017;-64
2021/12/23 07:47:30;;;;;;;32.17;12.65;;;-9.90;99.90;;;;;;5038404;28;20035;-64
2021/12/23 07:49:56;;;;;;;30.85;13.93;;;-9.90;99.90;;;;;;5036731;28;20051;-64
2021/12/23 07:52:22;;;;;;;40.08;13.63;;;-10.00;99.90;;;;;;5035985;28;20031;-64
2021/12/23 07:54:48;;;;;;;33.60;12.77;;;-10.00;99.90;;;;;;5036821;28;20029;-64
2021/12/23 07:57:14;;;;;;;26.25;11.80;;;-9.90;99.90;;;;;;5037395;28;20109;-64
2021/12/23 07:59:39;;;;;;;33.15;12.15;;;-9.90;99.90;;;;;;5037852;28;20017;-65
2021/12/23 08:02:05;;;;;;;35.10;14.45;;;-9.90;99.90;;;;;;5037683;28;20088;-65
2021/12/23 08:04:33;;;;;;;29.45;12.00;;;-9.90;99.90;;;;;;5037417;28;20017;-65
2021/12/23 08:07:02;;;;;;;26.10;10.68;;;-9.90;99.90;;;;;;5038335;28;20026;-64
2021/12/23 08:09:28;;;;;;;20.48;10.35;;;-9.80;99.90;;;;;;5037752;28;20029;-65
2021/12/23 08:11:54;;;;;;;22.23;9.63;;;-9.80;99.90;;;;;;5038753;28;20030;-65
2021/12/23 08:14:21;;;;;;;20.70;9.07;;;-9.60;99.90;;;;;;5036354;28;20390;-64
2021/12/23 08:16:50;;;;;;;20.08;7.28;;;-9.60;99.90;;;;;;5037838;28;20474;-65
2021/12/23 08:19:16;;;;;;;21.83;6.85;;;-9.50;99.90;;;;;;5036718;28;20060;-65
2021/12/23 08:21:41;;;;;;;13.80;5.32;;;-9.40;99.90;;;;;;5040411;28;20025;-65
2021/12/23 08:24:07;;;;;;;15.73;6.13;;;-9.40;99.90;;;;;;5039367;28;20385;-65
2021/12/23 08:26:40;;;;;;;14.88;4.80;;;-9.40;99.90;;;;;;5038616;28;20036;-65
2021/12/23 08:29:07;;;;;;;17.33;4.82;;;-9.40;99.90;;;;;;5037574;28;20071;-65
2021/12/23 08:31:33;;;;;;;13.48;3.83;;;-9.40;99.90;;;;;;5038254;28;20513;-64
2021/12/23 08:33:59;;;;;;;12.80;4.45;;;-9.40;99.90;;;;;;5037232;28;20048;-64
2021/12/23 08:36:25;;;;;;;8.23;3.10;;;-9.30;99.90;;;;;;5036492;28;20029;-64
2021/12/23 08:38:51;;;;;;;8.00;3.55;;;-9.30;99.90;;;;;;5037240;28;20082;-65
2021/12/23 08:41:17;;;;;;;11.10;3.70;;;-9.30;99.90;;;;;;5035377;28;20444;-65
2021/12/23 08:43:46;;;;;;;8.10;4.28;;;-9.20;99.90;;;;;;5036110;28;20021;-65
2021/12/23 08:46:12;;;;;;;9.68;4.80;;;-9.20;99.90;;;;;;5036531;28;20036;-65
2021/12/23 08:48:38;;;;;;;14.77;5.65;;;-9.10;99.90;;;;;;5035109;28;20030;-65
2021/12/23 08:51:04;;;;;;;10.48;4.55;;;-9.10;99.90;;;;;;5037038;28;20033;-65
2021/12/23 08:53:29;;;;;;;9.20;4.57;;;-9.10;99.90;;;;;;5036246;28;20048;-65
2021/12/23 08:55:55;;;;;;;14.23;5.30;;;-9.00;99.90;;;;;;5037295;28;20424;-65
2021/12/23 08:58:21;;;;;;;14.27;6.18;;;-9.00;99.90;;;;;;5035162;28;20483;-64
2021/12/23 09:00:47;;;;;;;12.68;5.47;;;-8.90;99.90;;;;;;5036608;28;20026;-64
2021/12/23 09:03:13;;;;;;;15.00;6.72;;;-8.80;99.90;;;;;;5036274;28;20504;-64
2021/12/23 09:05:41;;;;;;;21.42;7.63;;;-8.70;99.90;;;;;;5036099;28;20021;-65
2021/12/23 09:08:08;;;;;;;19.55;7.35;;;-8.60;99.90;;;;;;5036345;28;20025;-65
2021/12/23 09:10:35;;;;;;;16.27;6.80;;;-8.60;99.90;;;;;;5035145;28;20546;-65
2021/12/23 09:13:02;;;;;;;20.25;6.63;;;-8.60;99.90;;;;;;5036984;28;20030;-65
2021/12/23 09:15:27;;;;;;;17.00;6.80;;;-8.50;99.90;;;;;;5036528;28;20030;-65
2021/12/23 09:17:53;;;;;;;15.50;7.20;;;-8.40;99.90;;;;;;5036279;28;20109;-64
2021/12/23 09:20:22;;;;;;;17.15;8.18;;;-8.30;99.90;;;;;;5035344;28;20034;-65
2021/12/23 09:22:49;;;;;;;20.52;7.55;;;-8.20;99.90;;;;;;5034614;28;20512;-65
2021/12/23 09:25:24;;;;;;;11.50;5.80;;;-8.10;99.90;;;;;;5035200;28;20448;-65
2021/12/23 09:33:16;;;;;;;12.73;5.22;;;-7.90;99.90;;;;;;5036034;28;20113;-65
2021/12/23 09:35:42;;;;;;;15.95;6.00;;;-7.80;99.90;;;;;;5035251;28;20021;-64
2021/12/23 09:38:09;;;;;;;20.00;6.03;;;-7.60;99.90;;;;;;5035252;28;20017;-64
2021/12/23 09:40:36;;;;;;;14.52;5.75;;;-7.60;99.90;;;;;;5034958;28;20030;-65
2021/12/23 09:43:06;;;;;;;17.05;6.55;;;-7.40;99.90;;;;;;5033835;28;20117;-65
2021/12/23 09:45:34;;;;;;;24.70;7.13;;;-7.30;99.90;;;;;;5034893;28;20020;-65
2021/12/23 09:48:02;;;;;;;19.42;7.45;;;-7.20;99.90;;;;;;5034920;28;20037;-64
2021/12/23 09:50:34;;;;;;;18.52;8.23;;;-7.10;99.90;;;;;;5035347;28;20021;-65
2021/12/23 09:53:02;;;;;;;14.65;6.15;;;-7.00;99.90;;;;;;5034789;28;20091;-65
2021/12/23 09:55:28;;;;;;;14.35;6.47;;;-7.00;99.90;;;;;;5034605;28;20018;-65
2021/12/23 09:57:58;;;;;;;19.40;6.97;;;-6.80;99.90;;;;;;5034808;28;20044;-65
2021/12/23 10:00:32;;;;;;;15.35;6.15;;;-6.80;99.90;;;;;;5034778;28;20039;-65
2021/12/23 10:02:59;;;;;;;22.60;9.80;;;-6.70;99.90;;;;;;5033345;28;20033;-65
2021/12/23 10:05:27;;;;;;;24.23;8.88;;;-6.60;99.90;;;;;;5034752;28;20022;-65
2021/12/23 10:07:54;;;;;;;25.73;9.88;;;-6.50;99.90;;;;;;5035011;28;20084;-65
2021/12/23 10:38:44;;;;;;;21.48;7.25;;;-5.50;99.90;;;;;;5023074;28;20069;-65
2021/12/23 10:41:13;;;;;;;25.27;7.82;;;-5.40;99.90;;;;;;5035131;28;20468;-65
2021/12/23 10:43:51;;;;;;;28.33;8.15;;;-5.30;99.90;;;;;;5035039;28;20022;-65
2021/12/23 10:46:24;;;;;;;26.77;6.97;;;-5.20;99.90;;;;;;5036292;28;20017;-65
2021/12/23 10:49:52;;;;;;;20.15;6.90;;;-5.20;99.90;;;;;;5033256;28;20109;-65
2021/12/23 10:52:14;;;;;;;16.95;6.63;;;-5.10;99.90;;;;;;5030121;28;20437;-65
2021/12/23 11:00:49;;;;;;;21.75;6.80;;;-4.80;99.90;;;;;;5035582;28;20033;-65
2021/12/23 11:03:38;;;;;;;21.10;6.93;;;-4.70;99.90;;;;;;5035658;28;20032;-65
2021/12/23 11:06:19;;;;;;;14.73;6.35;;;-4.60;99.90;;;;;;5036024;28;20036;-65
2021/12/23 11:43:48;;;;;;;39.03;15.20;;;-3.80;99.90;;;;;;5033734;28;20386;-65
2021/12/23 11:46:17;;;;;;;28.85;12.63;;;-3.80;99.90;;;;;;5033971;28;20032;-65
2021/12/23 11:48:46;;;;;;;44.70;13.60;;;-3.70;99.90;;;;;;5032811;28;20022;-65
2021/12/23 11:51:19;;;;;;;31.88;11.02;;;-3.60;99.90;;;;;;5033414;28;20481;-65
2021/12/23 11:53:48;;;;;;;33.70;13.25;;;-3.60;99.90;;;;;;5033935;28;20390;-66
2021/12/23 11:56:16;;;;;;;33.28;14.10;;;-3.50;99.90;;;;;;5033488;28;20122;-66
2021/12/23 11:58:45;;;;;;;29.65;13.13;;;-3.50;99.90;;;;;;5031981;28;20033;-66
2021/12/23 12:01:17;;;;;;;35.50;13.68;;;-3.40;99.90;;;;;;5032060;28;20022;-66
2021/12/23 12:03:59;;;;;;;33.65;13.70;;;-3.30;99.90;;;;;;5033648;28;20052;-66
2021/12/23 12:06:30;;;;;;;29.67;12.48;;;-3.20;99.90;;;;;;5035827;28;20029;-66
2021/12/23 12:09:23;;;;;;;30.63;13.77;;;-3.20;99.90;;;;;;5035787;28;20025;-66
2021/12/23 12:12:09;;;;;;;31.15;13.60;;;-3.20;99.90;;;;;;5035613;28;20390;-66
2021/12/23 12:14:41;;;;;;;30.40;12.95;;;-3.20;99.90;;;;;;5037023;28;20029;-66
2021/12/23 12:17:25;;;;;;;40.78;13.95;;;-3.10;99.90;;;;;;5035068;28;20067;-66
2021/12/23 12:19:58;;;;;;;39.22;13.20;;;-3.10;99.90;;;;;;5036986;28;20026;-66
2021/12/23 12:22:51;;;;;;;41.65;12.95;;;-3.10;99.90;;;;;;5037423;28;20029;-66
2021/12/23 12:25:23;;;;;;;25.58;10.90;;;-3.00;99.90;;;;;;5037806;28;20021;-66
2021/12/23 12:27:54;;;;;;;21.70;9.52;;;-3.00;99.90;;;;;;5036483;28;20032;-66
2021/12/23 12:30:40;;;;;;;25.15;9.38;;;-3.00;99.90;;;;;;5036357;28;20034;-66
2021/12/23 12:33:19;;;;;;;30.33;10.05;;;-2.80;99.90;;;;;;5034643;28;20018;-66
2021/12/23 12:36:03;;;;;;;25.23;10.93;;;-2.70;99.90;;;;;;5034669;28;20517;-66
2021/12/23 12:39:14;;;;;;;40.30;10.82;;;-2.60;99.90;;;;;;5036458;28;20025;-66
2021/12/23 12:41:40;;;;;;;33.17;10.48;;;-2.60;99.90;;;;;;4975088;28;20018;-66
2021/12/23 12:44:18;;;;;;;27.13;10.75;;;-2.50;99.90;;;;;;4974877;28;20038;-66
2021/12/23 12:47:37;;;;;;;29.92;10.55;;;-2.50;99.90;;;;;;5000185;28;20488;-66
2021/12/23 12:49:46;;;;;;;27.02;10.55;;;-2.40;99.90;;;;;;5028473;28;20037;-66
2021/12/23 12:52:30;;;;;;;34.20;10.27;;;-2.40;99.90;;;;;;5034218;28;20030;-67
2021/12/23 12:55:05;;;;;;;28.95;10.30;;;-2.30;99.90;;;;;;5036187;28;20108;-66
2021/12/23 12:57:47;;;;;;;34.13;11.75;;;-2.20;99.90;;;;;;5036148;28;20461;-68
2021/12/23 13:00:27;;;;;;;30.77;11.13;;;-2.10;99.90;;;;;;5036796;28;20025;-67
2021/12/23 13:03:06;;;;;;;26.73;11.68;;;-2.00;99.90;;;;;;5036827;28;20112;-67
2021/12/23 13:05:39;;;;;;;35.33;14.05;;;-2.00;99.90;;;;;;5036314;28;20097;-68
2021/12/23 13:08:29;;;;;;;34.20;15.57;;;-1.90;99.90;;;;;;5036769;28;20036;-67
2021/12/23 13:11:21;;;;;;;39.70;16.00;;;-1.80;99.90;;;;;;5036522;28;20029;-67
2021/12/23 13:13:59;;;;;;;43.80;14.82;;;-1.70;99.90;;;;;;5035836;28;20122;-68
2021/12/23 13:16:26;;;;;;;36.33;14.23;;;-1.70;99.90;;;;;;5035599;28;20021;-69
2021/12/23 13:19:17;;;;;;;38.33;14.13;;;-1.70;99.90;;;;;;5034534;28;20029;-68
2021/12/23 13:21:47;;;;;;;39.80;13.27;;;-1.70;99.90;;;;;;5036104;28;20056;-67
2021/12/23 13:24:17;;;;;;;26.75;11.95;;;-1.70;99.90;;;;;;5035569;28;20029;-67
2021/12/23 13:26:44;;;;;;;27.67;10.65;;;-1.70;99.90;;;;;;5034271;28;20108;-67
2021/12/23 13:29:10;;;;;;;27.23;10.82;;;-1.70;99.90;;;;;;5035590;28;20083;-67
2021/12/23 13:31:39;;;;;;;47.60;14.70;;;-1.70;99.90;;;;;;5034442;28;20026;-67
2021/12/23 13:34:16;;;;;;;46.83;16.45;;;-1.70;99.90;;;;;;5035651;28;20047;-67
2021/12/23 13:36:46;;;;;;;32.80;14.50;;;-1.70;99.90;;;;;;5034084;28;20032;-67
2021/12/23 13:39:18;;;;;;;35.13;14.40;;;-1.80;99.90;;;;;;5035115;28;20021;-67
2021/12/23 13:41:50;;;;;;;43.10;16.00;;;-1.80;99.90;;;;;;5034647;28;20389;-67
2021/12/23 13:44:16;;;;;;;29.77;13.48;;;-1.80;99.90;;;;;;5035094;28;20101;-67
2021/12/23 13:46:44;;;;;;;28.05;12.07;;;-1.80;99.90;;;;;;5034998;28;20070;-67
2021/12/23 13:49:10;;;;;;;35.25;13.85;;;-1.80;99.90;;;;;;5034943;28;20112;-67
2021/12/23 13:51:40;;;;;;;39.92;15.00;;;-1.80;99.90;;;;;;5033965;28;20025;-67
2021/12/23 13:54:15;;;;;;;28.90;15.17;;;-1.90;99.90;;;;;;5034781;28;20037;-66
2021/12/23 13:56:46;;;;;;;42.42;15.52;;;-1.90;99.90;;;;;;5034633;28;20632;-66
2021/12/23 13:59:21;;;;;;;38.95;15.35;;;-1.90;99.90;;;;;;5034409;28;20026;-66
2021/12/23 14:01:55;;;;;;;38.00;16.08;;;-1.90;99.90;;;;;;5034445;28;20087;-66
2021/12/23 14:04:47;;;;;;;35.75;15.60;;;-1.90;99.90;;;;;;5033127;28;20030;-66